Аэропорт: Гродно. Гродно

ICAO: UMMG

METAR:
2018/09/19 07:00
UMMG 190700Z 20004MPS 9000 NSC 17/15 Q1017 R17/CLRD// NOSIG
METAR:
2018/08/30 12:24
TAF UMMG 301100Z 3012/30218 18005MPS 9999 BKN020